sensor_id;sensor_type;location;lat;lon;timestamp;P1;P2;P0
73305;PMS5003;61530;51.158;0.880;2023-02-15T00:00:09;102;96;53
73305;PMS5003;61530;51.158;0.880;2023-02-15T00:01:13;109;99;52
73305;PMS5003;61530;51.158;0.880;2023-02-15T00:02:17;103;88;51
73305;PMS5003;61530;51.158;0.880;2023-02-15T00:03:21;111;94;52
73305;PMS5003;61530;51.158;0.880;2023-02-15T00:04:25;106;88;48
73305;PMS5003;61530;51.158;0.880;2023-02-15T00:05:30;112;93;54
73305;PMS5003;61530;51.158;0.880;2023-02-15T00:06:33;113;97;56
73305;PMS5003;61530;51.158;0.880;2023-02-15T00:07:37;105;90;54
73305;PMS5003;61530;51.158;0.880;2023-02-15T00:08:41;100;86;50
73305;PMS5003;61530;51.158;0.880;2023-02-15T00:09:45;98;92;48
73305;PMS5003;61530;51.158;0.880;2023-02-15T00:10:49;95;87;53
73305;PMS5003;61530;51.158;0.880;2023-02-15T00:11:53;103;97;51
73305;PMS5003;61530;51.158;0.880;2023-02-15T00:12:57;95;87;51
73305;PMS5003;61530;51.158;0.880;2023-02-15T00:14:01;93;86;51
73305;PMS5003;61530;51.158;0.880;2023-02-15T00:15:06;112;100;55
73305;PMS5003;61530;51.158;0.880;2023-02-15T00:16:10;114;94;53
73305;PMS5003;61530;51.158;0.880;2023-02-15T00:17:13;116;97;51
73305;PMS5003;61530;51.158;0.880;2023-02-15T00:18:17;111;91;52
73305;PMS5003;61530;51.158;0.880;2023-02-15T00:19:21;101;92;56
73305;PMS5003;61530;51.158;0.880;2023-02-15T00:20:25;112;98;52
73305;PMS5003;61530;51.158;0.880;2023-02-15T00:21:30;109;99;53
73305;PMS5003;61530;51.158;0.880;2023-02-15T00:22:33;102;89;53
73305;PMS5003;61530;51.158;0.880;2023-02-15T00:23:37;97;84;51
73305;PMS5003;61530;51.158;0.880;2023-02-15T00:24:41;97;83;46
73305;PMS5003;61530;51.158;0.880;2023-02-15T00:25:45;94;88;47
73305;PMS5003;61530;51.158;0.880;2023-02-15T00:26:49;94;84;47
73305;PMS5003;61530;51.158;0.880;2023-02-15T00:27:53;99;84;48
73305;PMS5003;61530;51.158;0.880;2023-02-15T00:28:57;97;84;47
73305;PMS5003;61530;51.158;0.880;2023-02-15T00:30:02;99;91;52
73305;PMS5003;61530;51.158;0.880;2023-02-15T00:31:05;103;92;52
73305;PMS5003;61530;51.158;0.880;2023-02-15T00:32:09;102;96;54
73305;PMS5003;61530;51.158;0.880;2023-02-15T00:33:13;99;83;49
73305;PMS5003;61530;51.158;0.880;2023-02-15T00:34:18;92;86;51
73305;PMS5003;61530;51.158;0.880;2023-02-15T00:35:21;99;86;48
73305;PMS5003;61530;51.158;0.880;2023-02-15T00:36:25;79;74;48
73305;PMS5003;61530;51.158;0.880;2023-02-15T00:37:29;97;84;47
73305;PMS5003;61530;51.158;0.880;2023-02-15T00:38:33;97;89;51
73305;PMS5003;61530;51.158;0.880;2023-02-15T00:39:37;95;82;46
73305;PMS5003;61530;51.158;0.880;2023-02-15T00:40:41;103;93;51
73305;PMS5003;61530;51.158;0.880;2023-02-15T00:41:45;89;81;47
73305;PMS5003;61530;51.158;0.880;2023-02-15T00:42:49;97;83;44
73305;PMS5003;61530;51.158;0.880;2023-02-15T00:43:53;92;77;47
73305;PMS5003;61530;51.158;0.880;2023-02-15T00:44:57;86;76;46
73305;PMS5003;61530;51.158;0.880;2023-02-15T00:46:02;95;80;43
73305;PMS5003;61530;51.158;0.880;2023-02-15T00:47:05;87;79;46
73305;PMS5003;61530;51.158;0.880;2023-02-15T00:48:09;89;74;44
73305;PMS5003;61530;51.158;0.880;2023-02-15T00:49:13;95;82;46
73305;PMS5003;61530;51.158;0.880;2023-02-15T00:50:17;96;89;44
73305;PMS5003;61530;51.158;0.880;2023-02-15T00:51:21;96;77;46
73305;PMS5003;61530;51.158;0.880;2023-02-15T00:52:25;101;81;47
73305;PMS5003;61530;51.158;0.880;2023-02-15T00:53:30;88;83;50
73305;PMS5003;61530;51.158;0.880;2023-02-15T00:54:33;84;76;43
73305;PMS5003;61530;51.158;0.880;2023-02-15T00:55:37;97;87;46
73305;PMS5003;61530;51.158;0.880;2023-02-15T00:56:41;96;80;46
73305;PMS5003;61530;51.158;0.880;2023-02-15T00:57:45;97;82;46
73305;PMS5003;61530;51.158;0.880;2023-02-15T00:58:49;93;89;45
73305;PMS5003;61530;51.158;0.880;2023-02-15T00:59:53;96;83;44
73305;PMS5003;61530;51.158;0.880;2023-02-15T01:01:01;91;78;44
73305;PMS5003;61530;51.158;0.880;2023-02-15T01:02:02;108;85;49
73305;PMS5003;61530;51.158;0.880;2023-02-15T01:03:05;85;76;46
73305;PMS5003;61530;51.158;0.880;2023-02-15T01:04:09;91;79;46
73305;PMS5003;61530;51.158;0.880;2023-02-15T01:05:13;95;80;49
73305;PMS5003;61530;51.158;0.880;2023-02-15T01:06:18;104;93;51
73305;PMS5003;61530;51.158;0.880;2023-02-15T01:07:21;110;94;50
73305;PMS5003;61530;51.158;0.880;2023-02-15T01:08:25;95;83;52
73305;PMS5003;61530;51.158;0.880;2023-02-15T01:09:29;81;76;45
73305;PMS5003;61530;51.158;0.880;2023-02-15T01:10:34;99;88;57
73305;PMS5003;61530;51.158;0.880;2023-02-15T01:11:37;88;81;45
73305;PMS5003;61530;51.158;0.880;2023-02-15T01:12:41;100;88;50
73305;PMS5003;61530;51.158;0.880;2023-02-15T01:13:45;113;97;64
73305;PMS5003;61530;51.158;0.880;2023-02-15T01:14:49;99;84;54
73305;PMS5003;61530;51.158;0.880;2023-02-15T01:15:53;100;86;49
73305;PMS5003;61530;51.158;0.880;2023-02-15T01:16:57;97;85;42
73305;PMS5003;61530;51.158;0.880;2023-02-15T01:18:01;103;84;50
73305;PMS5003;61530;51.158;0.880;2023-02-15T01:19:05;95;89;55
73305;PMS5003;61530;51.158;0.880;2023-02-15T01:20:09;104;93;54
73305;PMS5003;61530;51.158;0.880;2023-02-15T01:21:14;97;84;46
73305;PMS5003;61530;51.158;0.880;2023-02-15T01:22:17;102;89;47
73305;PMS5003;61530;51.158;0.880;2023-02-15T01:23:21;100;88;45
73305;PMS5003;61530;51.158;0.880;2023-02-15T01:24:25;96;84;53
73305;PMS5003;61530;51.158;0.880;2023-02-15T01:25:29;107;90;50
73305;PMS5003;61530;51.158;0.880;2023-02-15T01:26:33;89;84;48
73305;PMS5003;61530;51.158;0.880;2023-02-15T01:27:37;103;87;54
73305;PMS5003;61530;51.158;0.880;2023-02-15T01:28:41;109;97;56
73305;PMS5003;61530;51.158;0.880;2023-02-15T01:29:45;97;85;48
73305;PMS5003;61530;51.158;0.880;2023-02-15T01:30:49;99;93;49
73305;PMS5003;61530;51.158;0.880;2023-02-15T01:31:53;109;83;44
73305;PMS5003;61530;51.158;0.880;2023-02-15T01:32:57;99;91;47
73305;PMS5003;61530;51.158;0.880;2023-02-15T01:34:02;96;83;50
73305;PMS5003;61530;51.158;0.880;2023-02-15T01:35:05;105;86;47
73305;PMS5003;61530;51.158;0.880;2023-02-15T01:36:10;107;86;47
73305;PMS5003;61530;51.158;0.880;2023-02-15T01:37:13;87;80;47
73305;PMS5003;61530;51.158;0.880;2023-02-15T01:38:17;100;90;55
73305;PMS5003;61530;51.158;0.880;2023-02-15T01:39:21;91;81;45
73305;PMS5003;61530;51.158;0.880;2023-02-15T01:40:25;93;80;46
73305;PMS5003;61530;51.158;0.880;2023-02-15T01:41:29;97;86;51
73305;PMS5003;61530;51.158;0.880;2023-02-15T01:42:33;94;85;46
73305;PMS5003;61530;51.158;0.880;2023-02-15T01:43:39;106;87;50
73305;PMS5003;61530;51.158;0.880;2023-02-15T01:44:50;97;87;47
73305;PMS5003;61530;51.158;0.880;2023-02-15T01:45:45;96;86;46
73305;PMS5003;61530;51.158;0.880;2023-02-15T01:46:50;99;86;48
73305;PMS5003;61530;51.158;0.880;2023-02-15T01:47:54;90;87;50
73305;PMS5003;61530;51.158;0.880;2023-02-15T01:49:00;100;92;52
73305;PMS5003;61530;51.158;0.880;2023-02-15T01:50:03;93;86;49
73305;PMS5003;61530;51.158;0.880;2023-02-15T01:51:05;90;82;50
73305;PMS5003;61530;51.158;0.880;2023-02-15T01:52:09;102;79;46
73305;PMS5003;61530;51.158;0.880;2023-02-15T01:53:15;86;79;44
73305;PMS5003;61530;51.158;0.880;2023-02-15T01:54:18;89;80;45
73305;PMS5003;61530;51.158;0.880;2023-02-15T01:55:22;90;80;46
73305;PMS5003;61530;51.158;0.880;2023-02-15T01:56:26;100;86;44
73305;PMS5003;61530;51.158;0.880;2023-02-15T01:57:29;104;95;57
73305;PMS5003;61530;51.158;0.880;2023-02-15T01:58:33;110;98;55
73305;PMS5003;61530;51.158;0.880;2023-02-15T01:59:37;110;95;48
73305;PMS5003;61530;51.158;0.880;2023-02-15T02:00:41;102;90;45
73305;PMS5003;61530;51.158;0.880;2023-02-15T02:01:45;96;84;47
73305;PMS5003;61530;51.158;0.880;2023-02-15T02:02:50;101;85;47
73305;PMS5003;61530;51.158;0.880;2023-02-15T02:03:56;91;86;47
73305;PMS5003;61530;51.158;0.880;2023-02-15T02:04:57;103;85;51
73305;PMS5003;61530;51.158;0.880;2023-02-15T02:06:02;115;97;53
73305;PMS5003;61530;51.158;0.880;2023-02-15T02:07:06;107;84;47
73305;PMS5003;61530;51.158;0.880;2023-02-15T02:08:09;95;84;50
73305;PMS5003;61530;51.158;0.880;2023-02-15T02:09:13;98;88;49
73305;PMS5003;61530;51.158;0.880;2023-02-15T02:10:18;107;89;50
73305;PMS5003;61530;51.158;0.880;2023-02-15T02:11:21;97;85;47
73305;PMS5003;61530;51.158;0.880;2023-02-15T02:12:25;99;92;51
73305;PMS5003;61530;51.158;0.880;2023-02-15T02:13:29;103;90;51
73305;PMS5003;61530;51.158;0.880;2023-02-15T02:14:33;110;97;60
73305;PMS5003;61530;51.158;0.880;2023-02-15T02:15:39;105;92;48
73305;PMS5003;61530;51.158;0.880;2023-02-15T02:16:42;105;93;51
73305;PMS5003;61530;51.158;0.880;2023-02-15T02:17:49;90;85;47
73305;PMS5003;61530;51.158;0.880;2023-02-15T02:18:53;95;89;47
73305;PMS5003;61530;51.158;0.880;2023-02-15T02:19:58;104;91;52
73305;PMS5003;61530;51.158;0.880;2023-02-15T02:20:59;97;85;50
73305;PMS5003;61530;51.158;0.880;2023-02-15T02:22:14;103;88;49
73305;PMS5003;61530;51.158;0.880;2023-02-15T02:23:08;91;85;49
73305;PMS5003;61530;51.158;0.880;2023-02-15T02:24:15;94;88;52
73305;PMS5003;61530;51.158;0.880;2023-02-15T02:25:18;97;84;49
73305;PMS5003;61530;51.158;0.880;2023-02-15T02:26:26;109;90;50
73305;PMS5003;61530;51.158;0.880;2023-02-15T02:27:21;100;87;50
73305;PMS5003;61530;51.158;0.880;2023-02-15T02:28:30;106;99;52
73305;PMS5003;61530;51.158;0.880;2023-02-15T02:32:30;108;93;49
73305;PMS5003;61530;51.158;0.880;2023-02-15T02:34:18;94;80;49
73305;PMS5003;61530;51.158;0.880;2023-02-15T02:35:22;109;98;52
73305;PMS5003;61530;51.158;0.880;2023-02-15T02:36:27;113;95;52
73305;PMS5003;61530;51.158;0.880;2023-02-15T02:37:30;95;84;48
73305;PMS5003;61530;51.158;0.880;2023-02-15T02:38:36;93;84;51
73305;PMS5003;61530;51.158;0.880;2023-02-15T02:39:37;110;95;54
73305;PMS5003;61530;51.158;0.880;2023-02-15T02:40:43;100;91;50
73305;PMS5003;61530;51.158;0.880;2023-02-15T02:41:47;97;85;51
73305;PMS5003;61530;51.158;0.880;2023-02-15T02:42:50;112;104;69
73305;PMS5003;61530;51.158;0.880;2023-02-15T02:43:54;106;91;48
73305;PMS5003;61530;51.158;0.880;2023-02-15T02:44:59;96;94;52
73305;PMS5003;61530;51.158;0.880;2023-02-15T02:46:02;104;84;50
73305;PMS5003;61530;51.158;0.880;2023-02-15T02:47:06;99;84;45
73305;PMS5003;61530;51.158;0.880;2023-02-15T02:48:09;109;100;62
73305;PMS5003;61530;51.158;0.880;2023-02-15T02:49:13;90;80;46
73305;PMS5003;61530;51.158;0.880;2023-02-15T02:50:17;114;104;61
73305;PMS5003;61530;51.158;0.880;2023-02-15T02:51:21;95;91;48
73305;PMS5003;61530;51.158;0.880;2023-02-15T02:52:35;172;159;118
73305;PMS5003;61530;51.158;0.880;2023-02-15T02:53:29;104;89;49
73305;PMS5003;61530;51.158;0.880;2023-02-15T02:54:32;105;95;51
73305;PMS5003;61530;51.158;0.880;2023-02-15T02:55:38;95;81;45
73305;PMS5003;61530;51.158;0.880;2023-02-15T02:56:41;96;94;59
73305;PMS5003;61530;51.158;0.880;2023-02-15T02:57:47;108;89;49
73305;PMS5003;61530;51.158;0.880;2023-02-15T02:58:49;100;90;45
73305;PMS5003;61530;51.158;0.880;2023-02-15T02:59:53;95;87;47
73305;PMS5003;61530;51.158;0.880;2023-02-15T03:00:59;98;88;51
73305;PMS5003;61530;51.158;0.880;2023-02-15T03:02:02;99;93;55
73305;PMS5003;61530;51.158;0.880;2023-02-15T03:03:06;94;89;50
73305;PMS5003;61530;51.158;0.880;2023-02-15T03:04:09;111;94;52
73305;PMS5003;61530;51.158;0.880;2023-02-15T03:05:13;96;86;46
73305;PMS5003;61530;51.158;0.880;2023-02-15T03:06:18;99;90;49
73305;PMS5003;61530;51.158;0.880;2023-02-15T03:07:21;92;83;46
73305;PMS5003;61530;51.158;0.880;2023-02-15T03:08:26;94;79;46
73305;PMS5003;61530;51.158;0.880;2023-02-15T03:09:29;100;85;49
73305;PMS5003;61530;51.158;0.880;2023-02-15T03:10:33;105;90;52
73305;PMS5003;61530;51.158;0.880;2023-02-15T03:11:36;102;88;51
73305;PMS5003;61530;51.158;0.880;2023-02-15T03:12:41;107;94;49
73305;PMS5003;61530;51.158;0.880;2023-02-15T03:13:45;103;88;49
73305;PMS5003;61530;51.158;0.880;2023-02-15T03:14:49;113;95;54
73305;PMS5003;61530;51.158;0.880;2023-02-15T03:15:52;99;87;44
73305;PMS5003;61530;51.158;0.880;2023-02-15T03:16:57;109;95;57
73305;PMS5003;61530;51.158;0.880;2023-02-15T03:18:01;100;85;52
73305;PMS5003;61530;51.158;0.880;2023-02-15T03:19:06;105;91;55
73305;PMS5003;61530;51.158;0.880;2023-02-15T03:20:10;113;100;59
73305;PMS5003;61530;51.158;0.880;2023-02-15T03:21:13;106;95;50
73305;PMS5003;61530;51.158;0.880;2023-02-15T03:22:18;97;92;52
73305;PMS5003;61530;51.158;0.880;2023-02-15T03:23:21;105;89;49
73305;PMS5003;61530;51.158;0.880;2023-02-15T03:24:25;105;95;50
73305;PMS5003;61530;51.158;0.880;2023-02-15T03:25:30;91;84;50
73305;PMS5003;61530;51.158;0.880;2023-02-15T03:26:33;101;88;47
73305;PMS5003;61530;51.158;0.880;2023-02-15T03:27:37;91;84;50
73305;PMS5003;61530;51.158;0.880;2023-02-15T03:28:41;108;95;56
73305;PMS5003;61530;51.158;0.880;2023-02-15T03:29:45;111;105;65
73305;PMS5003;61530;51.158;0.880;2023-02-15T03:30:51;113;101;51
73305;PMS5003;61530;51.158;0.880;2023-02-15T03:31:54;114;95;54
73305;PMS5003;61530;51.158;0.880;2023-02-15T03:32:57;111;95;52
73305;PMS5003;61530;51.158;0.880;2023-02-15T03:34:02;113;88;52
73305;PMS5003;61530;51.158;0.880;2023-02-15T03:35:05;88;83;47
73305;PMS5003;61530;51.158;0.880;2023-02-15T03:36:09;108;100;55
73305;PMS5003;61530;51.158;0.880;2023-02-15T03:37:13;110;95;50
73305;PMS5003;61530;51.158;0.880;2023-02-15T03:38:18;103;91;51
73305;PMS5003;61530;51.158;0.880;2023-02-15T03:39:22;117;96;49
73305;PMS5003;61530;51.158;0.880;2023-02-15T03:40:26;108;93;52
73305;PMS5003;61530;51.158;0.880;2023-02-15T03:41:31;105;91;51
73305;PMS5003;61530;51.158;0.880;2023-02-15T03:42:33;99;89;47
73305;PMS5003;61530;51.158;0.880;2023-02-15T03:43:38;104;94;52
73305;PMS5003;61530;51.158;0.880;2023-02-15T03:44:45;103;91;52
73305;PMS5003;61530;51.158;0.880;2023-02-15T03:45:45;122;101;56
73305;PMS5003;61530;51.158;0.880;2023-02-15T03:46:50;98;93;51
73305;PMS5003;61530;51.158;0.880;2023-02-15T03:47:53;122;105;75
73305;PMS5003;61530;51.158;0.880;2023-02-15T03:48:57;104;92;60
73305;PMS5003;61530;51.158;0.880;2023-02-15T03:50:01;104;93;54
73305;PMS5003;61530;51.158;0.880;2023-02-15T03:51:06;108;99;54
73305;PMS5003;61530;51.158;0.880;2023-02-15T03:52:09;98;84;50
73305;PMS5003;61530;51.158;0.880;2023-02-15T03:53:14;103;90;50
73305;PMS5003;61530;51.158;0.880;2023-02-15T03:54:17;100;91;55
73305;PMS5003;61530;51.158;0.880;2023-02-15T03:55:21;113;97;52
73305;PMS5003;61530;51.158;0.880;2023-02-15T03:56:25;110;97;52
73305;PMS5003;61530;51.158;0.880;2023-02-15T03:57:29;103;87;50
73305;PMS5003;61530;51.158;0.880;2023-02-15T03:58:32;117;93;51
73305;PMS5003;61530;51.158;0.880;2023-02-15T03:59:37;93;84;47
73305;PMS5003;61530;51.158;0.880;2023-02-15T04:00:42;106;91;49
73305;PMS5003;61530;51.158;0.880;2023-02-15T04:01:47;104;92;46
73305;PMS5003;61530;51.158;0.880;2023-02-15T04:02:52;93;83;47
73305;PMS5003;61530;51.158;0.880;2023-02-15T04:03:54;98;85;45
73305;PMS5003;61530;51.158;0.880;2023-02-15T04:04:57;106;91;55
73305;PMS5003;61530;51.158;0.880;2023-02-15T04:06:01;93;81;44
73305;PMS5003;61530;51.158;0.880;2023-02-15T04:07:05;109;91;51
73305;PMS5003;61530;51.158;0.880;2023-02-15T04:08:10;94;86;47
73305;PMS5003;61530;51.158;0.880;2023-02-15T04:09:13;105;90;50
73305;PMS5003;61530;51.158;0.880;2023-02-15T04:10:17;91;83;47
73305;PMS5003;61530;51.158;0.880;2023-02-15T04:11:20;96;91;51
73305;PMS5003;61530;51.158;0.880;2023-02-15T04:12:25;108;91;52
73305;PMS5003;61530;51.158;0.880;2023-02-15T04:13:30;104;89;49
73305;PMS5003;61530;51.158;0.880;2023-02-15T04:14:33;91;85;48
73305;PMS5003;61530;51.158;0.880;2023-02-15T04:15:36;92;84;50
73305;PMS5003;61530;51.158;0.880;2023-02-15T04:16:41;94;81;47
73305;PMS5003;61530;51.158;0.880;2023-02-15T04:17:45;98;87;48
73305;PMS5003;61530;51.158;0.880;2023-02-15T04:18:49;101;91;45
73305;PMS5003;61530;51.158;0.880;2023-02-15T04:19:52;112;95;50
73305;PMS5003;61530;51.158;0.880;2023-02-15T04:20:57;92;80;52
73305;PMS5003;61530;51.158;0.880;2023-02-15T04:22:01;102;91;48
73305;PMS5003;61530;51.158;0.880;2023-02-15T04:23:05;98;85;50
73305;PMS5003;61530;51.158;0.880;2023-02-15T04:24:09;100;92;47
73305;PMS5003;61530;51.158;0.880;2023-02-15T04:25:13;96;90;48
73305;PMS5003;61530;51.158;0.880;2023-02-15T04:26:17;91;83;49
73305;PMS5003;61530;51.158;0.880;2023-02-15T04:27:21;94;83;47
73305;PMS5003;61530;51.158;0.880;2023-02-15T04:28:24;112;98;53
73305;PMS5003;61530;51.158;0.880;2023-02-15T04:29:29;103;92;47
73305;PMS5003;61530;51.158;0.880;2023-02-15T04:30:33;112;97;50
73305;PMS5003;61530;51.158;0.880;2023-02-15T04:31:37;92;80;43
73305;PMS5003;61530;51.158;0.880;2023-02-15T04:32:40;106;93;50
73305;PMS5003;61530;51.158;0.880;2023-02-15T04:33:45;109;94;52
73305;PMS5003;61530;51.158;0.880;2023-02-15T04:34:49;104;97;50
73305;PMS5003;61530;51.158;0.880;2023-02-15T04:35:53;97;85;50
73305;PMS5003;61530;51.158;0.880;2023-02-15T04:36:56;113;93;51
73305;PMS5003;61530;51.158;0.880;2023-02-15T04:38:01;101;88;55
73305;PMS5003;61530;51.158;0.880;2023-02-15T04:39:05;97;87;50
73305;PMS5003;61530;51.158;0.880;2023-02-15T04:40:10;98;85;50
73305;PMS5003;61530;51.158;0.880;2023-02-15T04:41:12;94;84;47
73305;PMS5003;61530;51.158;0.880;2023-02-15T04:42:17;100;90;48
73305;PMS5003;61530;51.158;0.880;2023-02-15T04:43:21;110;95;50
73305;PMS5003;61530;51.158;0.880;2023-02-15T04:44:25;115;95;52
73305;PMS5003;61530;51.158;0.880;2023-02-15T04:45:28;104;86;49
73305;PMS5003;61530;51.158;0.880;2023-02-15T04:46:33;100;91;50
73305;PMS5003;61530;51.158;0.880;2023-02-15T04:47:37;105;96;48
73305;PMS5003;61530;51.158;0.880;2023-02-15T04:48:41;100;93;50
73305;PMS5003;61530;51.158;0.880;2023-02-15T04:49:44;102;87;46
73305;PMS5003;61530;51.158;0.880;2023-02-15T04:50:49;93;91;52
73305;PMS5003;61530;51.158;0.880;2023-02-15T04:51:53;107;94;48
73305;PMS5003;61530;51.158;0.880;2023-02-15T04:52:57;103;92;47
73305;PMS5003;61530;51.158;0.880;2023-02-15T04:54:00;95;85;48
73305;PMS5003;61530;51.158;0.880;2023-02-15T04:55:06;103;85;52
73305;PMS5003;61530;51.158;0.880;2023-02-15T04:56:09;106;84;46
73305;PMS5003;61530;51.158;0.880;2023-02-15T04:57:13;106;83;48
73305;PMS5003;61530;51.158;0.880;2023-02-15T04:58:16;112;96;51
73305;PMS5003;61530;51.158;0.880;2023-02-15T04:59:21;111;97;49
73305;PMS5003;61530;51.158;0.880;2023-02-15T05:00:25;111;96;51
73305;PMS5003;61530;51.158;0.880;2023-02-15T05:01:29;98;84;46
73305;PMS5003;61530;51.158;0.880;2023-02-15T05:02:32;104;89;53
73305;PMS5003;61530;51.158;0.880;2023-02-15T05:03:37;123;98;51
73305;PMS5003;61530;51.158;0.880;2023-02-15T05:04:41;117;96;54
73305;PMS5003;61530;51.158;0.880;2023-02-15T05:05:45;102;94;54
73305;PMS5003;61530;51.158;0.880;2023-02-15T05:06:48;107;95;53
73305;PMS5003;61530;51.158;0.880;2023-02-15T05:07:53;92;90;51
73305;PMS5003;61530;51.158;0.880;2023-02-15T05:08:57;110;94;56
73305;PMS5003;61530;51.158;0.880;2023-02-15T05:10:01;110;99;55
73305;PMS5003;61530;51.158;0.880;2023-02-15T05:11:04;107;89;53
73305;PMS5003;61530;51.158;0.880;2023-02-15T05:12:09;100;98;53
73305;PMS5003;61530;51.158;0.880;2023-02-15T05:13:13;115;95;56
73305;PMS5003;61530;51.158;0.880;2023-02-15T05:14:17;127;101;54
73305;PMS5003;61530;51.158;0.880;2023-02-15T05:15:20;119;104;57
73305;PMS5003;61530;51.158;0.880;2023-02-15T05:16:25;112;95;54
73305;PMS5003;61530;51.158;0.880;2023-02-15T05:17:29;126;109;60
73305;PMS5003;61530;51.158;0.880;2023-02-15T05:18:33;127;113;59
73305;PMS5003;61530;51.158;0.880;2023-02-15T05:19:36;127;107;59
73305;PMS5003;61530;51.158;0.880;2023-02-15T05:20:41;135;104;55
73305;PMS5003;61530;51.158;0.880;2023-02-15T05:21:45;115;108;55
73305;PMS5003;61530;51.158;0.880;2023-02-15T05:22:50;120;104;54
73305;PMS5003;61530;51.158;0.880;2023-02-15T05:23:52;130;107;59
73305;PMS5003;61530;51.158;0.880;2023-02-15T05:24:57;118;106;57
73305;PMS5003;61530;51.158;0.880;2023-02-15T05:26:01;116;103;56
73305;PMS5003;61530;51.158;0.880;2023-02-15T05:27:05;132;106;58
73305;PMS5003;61530;51.158;0.880;2023-02-15T05:28:08;122;108;56
73305;PMS5003;61530;51.158;0.880;2023-02-15T05:29:13;124;110;61
73305;PMS5003;61530;51.158;0.880;2023-02-15T05:30:17;128;107;55
73305;PMS5003;61530;51.158;0.880;2023-02-15T05:31:21;135;117;62
73305;PMS5003;61530;51.158;0.880;2023-02-15T05:32:24;136;106;60
73305;PMS5003;61530;51.158;0.880;2023-02-15T05:33:29;137;110;58
73305;PMS5003;61530;51.158;0.880;2023-02-15T05:34:33;142;127;64
73305;PMS5003;61530;51.158;0.880;2023-02-15T05:35:37;127;112;59
73305;PMS5003;61530;51.158;0.880;2023-02-15T05:36:40;138;123;65
73305;PMS5003;61530;51.158;0.880;2023-02-15T05:37:45;147;119;61
73305;PMS5003;61530;51.158;0.880;2023-02-15T05:38:49;136;116;60
73305;PMS5003;61530;51.158;0.880;2023-02-15T05:39:53;138;116;65
73305;PMS5003;61530;51.158;0.880;2023-02-15T05:40:56;133;114;60
73305;PMS5003;61530;51.158;0.880;2023-02-15T05:42:02;142;119;61
73305;PMS5003;61530;51.158;0.880;2023-02-15T05:43:05;138;117;61
73305;PMS5003;61530;51.158;0.880;2023-02-15T05:44:09;129;110;58
73305;PMS5003;61530;51.158;0.880;2023-02-15T05:45:12;129;112;58
73305;PMS5003;61530;51.158;0.880;2023-02-15T05:46:17;129;114;64
73305;PMS5003;61530;51.158;0.880;2023-02-15T05:47:21;137;112;61
73305;PMS5003;61530;51.158;0.880;2023-02-15T05:48:25;140;126;64
73305;PMS5003;61530;51.158;0.880;2023-02-15T05:49:28;136;119;61
73305;PMS5003;61530;51.158;0.880;2023-02-15T05:50:33;140;120;66
73305;PMS5003;61530;51.158;0.880;2023-02-15T05:51:37;123;108;59
73305;PMS5003;61530;51.158;0.880;2023-02-15T05:52:41;137;118;65
73305;PMS5003;61530;51.158;0.880;2023-02-15T05:53:44;138;114;65
73305;PMS5003;61530;51.158;0.880;2023-02-15T05:54:49;140;113;64
73305;PMS5003;61530;51.158;0.880;2023-02-15T05:55:53;148;126;62
73305;PMS5003;61530;51.158;0.880;2023-02-15T05:56:57;138;111;58
73305;PMS5003;61530;51.158;0.880;2023-02-15T05:58:00;142;125;63
73305;PMS5003;61530;51.158;0.880;2023-02-15T05:59:05;143;123;66
73305;PMS5003;61530;51.158;0.880;2023-02-15T06:00:09;140;111;59
73305;PMS5003;61530;51.158;0.880;2023-02-15T06:01:14;131;111;59
73305;PMS5003;61530;51.158;0.880;2023-02-15T06:02:16;140;122;62
73305;PMS5003;61530;51.158;0.880;2023-02-15T06:03:21;146;115;64
73305;PMS5003;61530;51.158;0.880;2023-02-15T06:04:25;149;114;65
73305;PMS5003;61530;51.158;0.880;2023-02-15T06:05:29;164;130;62
73305;PMS5003;61530;51.158;0.880;2023-02-15T06:06:32;136;119;62
73305;PMS5003;61530;51.158;0.880;2023-02-15T06:07:37;137;123;68
73305;PMS5003;61530;51.158;0.880;2023-02-15T06:08:41;136;123;60
73305;PMS5003;61530;51.158;0.880;2023-02-15T06:09:45;140;124;60
73305;PMS5003;61530;51.158;0.880;2023-02-15T06:10:48;138;121;65
73305;PMS5003;61530;51.158;0.880;2023-02-15T06:11:53;151;119;61
73305;PMS5003;61530;51.158;0.880;2023-02-15T06:12:57;136;112;57
73305;PMS5003;61530;51.158;0.880;2023-02-15T06:14:02;132;118;61
73305;PMS5003;61530;51.158;0.880;2023-02-15T06:15:05;130;119;61
73305;PMS5003;61530;51.158;0.880;2023-02-15T06:16:09;129;113;64
73305;PMS5003;61530;51.158;0.880;2023-02-15T06:17:13;143;105;59
73305;PMS5003;61530;51.158;0.880;2023-02-15T06:18:17;131;108;57
73305;PMS5003;61530;51.158;0.880;2023-02-15T06:19:20;134;108;59
73305;PMS5003;61530;51.158;0.880;2023-02-15T06:20:25;130;110;59
73305;PMS5003;61530;51.158;0.880;2023-02-15T06:21:29;133;119;62
73305;PMS5003;61530;51.158;0.880;2023-02-15T06:22:33;126;112;59
73305;PMS5003;61530;51.158;0.880;2023-02-15T06:23:36;122;111;60
73305;PMS5003;61530;51.158;0.880;2023-02-15T06:24:41;120;102;55
73305;PMS5003;61530;51.158;0.880;2023-02-15T06:25:45;139;113;61
73305;PMS5003;61530;51.158;0.880;2023-02-15T06:26:49;127;108;54
73305;PMS5003;61530;51.158;0.880;2023-02-15T06:27:52;124;109;61
73305;PMS5003;61530;51.158;0.880;2023-02-15T06:28:57;129;118;61
73305;PMS5003;61530;51.158;0.880;2023-02-15T06:30:01;128;113;61
73305;PMS5003;61530;51.158;0.880;2023-02-15T06:31:05;127;110;57
73305;PMS5003;61530;51.158;0.880;2023-02-15T06:32:08;125;108;61
73305;PMS5003;61530;51.158;0.880;2023-02-15T06:33:13;129;110;62
73305;PMS5003;61530;51.158;0.880;2023-02-15T06:34:17;129;108;62
73305;PMS5003;61530;51.158;0.880;2023-02-15T06:35:21;123;113;61
73305;PMS5003;61530;51.158;0.880;2023-02-15T06:36:24;123;107;59
73305;PMS5003;61530;51.158;0.880;2023-02-15T06:37:29;126;106;57
73305;PMS5003;61530;51.158;0.880;2023-02-15T06:38:33;113;102;57
73305;PMS5003;61530;51.158;0.880;2023-02-15T06:39:37;115;106;58
73305;PMS5003;61530;51.158;0.880;2023-02-15T06:40:40;113;102;58
73305;PMS5003;61530;51.158;0.880;2023-02-15T06:41:45;127;111;58
73305;PMS5003;61530;51.158;0.880;2023-02-15T06:42:49;138;111;58
73305;PMS5003;61530;51.158;0.880;2023-02-15T06:43:53;122;110;61
73305;PMS5003;61530;51.158;0.880;2023-02-15T06:44:56;116;105;56
73305;PMS5003;61530;51.158;0.880;2023-02-15T06:46:01;114;103;55
73305;PMS5003;61530;51.158;0.880;2023-02-15T06:47:05;126;110;58
73305;PMS5003;61530;51.158;0.880;2023-02-15T06:48:09;119;100;56